Time;durP1;ratioP1;P1;durP2;ratioP2;P2;SDS_P1;SDS_P2;PMS_P1;PMS_P2;Temp;Humidity;BMP_temperature;BMP_pressure;BME280_temperature;BME280_humidity;BME280_pressure;Samples;Min_cycle;Max_cycle;Signal;HPM_P1;HPM_P2
2023/10/16 00:01:11;;;;;;;1.77;1.00;;;;;;;7.14;100.00;102167.34;4909457;28;20061;-76
2023/10/16 00:03:41;;;;;;;4.10;1.10;;;;;;;7.10;100.00;102170.69;4922971;29;20501;-76
2023/10/16 00:06:16;;;;;;;3.03;1.13;;;;;;;7.05;100.00;102174.84;4888412;29;20551;-76
2023/10/16 00:08:47;;;;;;;1.40;0.90;;;;;;;7.00;100.00;102162.47;4908459;29;20067;-76
2023/10/16 00:11:18;;;;;;;1.75;0.80;;;;;;;6.99;100.00;102165.94;4903032;29;20668;-76
2023/10/16 00:13:50;;;;;;;1.13;0.70;;;;;;;6.98;100.00;102174.63;4896990;29;20048;-76
2023/10/16 00:16:23;;;;;;;5.10;0.80;;;;;;;6.93;100.00;102173.53;4913537;29;20054;-76
2023/10/16 00:18:53;;;;;;;6.65;1.10;;;;;;;6.91;100.00;102190.94;4886760;29;20079;-76
2023/10/16 00:21:24;;;;;;;10.43;1.30;;;;;;;6.89;100.00;102182.13;4839212;29;20051;-77
2023/10/16 00:23:54;;;;;;;3.55;0.80;;;;;;;6.89;100.00;102195.22;4911408;29;20516;-76
2023/10/16 00:26:22;;;;;;;2.73;0.80;;;;;;;6.88;100.00;102176.81;4913939;29;20421;-76
2023/10/16 00:29:02;;;;;;;1.25;0.60;;;;;;;6.88;100.00;102172.50;4899030;29;20074;-76
2023/10/16 00:31:32;;;;;;;2.58;0.90;;;;;;;6.89;100.00;102173.38;4911139;29;20176;-76
2023/10/16 00:34:02;;;;;;;6.03;1.10;;;;;;;6.92;100.00;102171.78;4912448;29;20050;-76
2023/10/16 00:36:30;;;;;;;5.05;1.25;;;;;;;6.95;100.00;102171.00;4857017;29;20062;-76
2023/10/16 00:39:12;;;;;;;3.88;0.93;;;;;;;6.98;100.00;102174.63;4895235;29;20527;-76
2023/10/16 00:41:42;;;;;;;3.88;0.88;;;;;;;7.00;100.00;102166.81;4890161;29;20501;-76
2023/10/16 00:44:10;;;;;;;3.22;1.02;;;;;;;7.01;100.00;102163.34;4886243;29;20052;-77
2023/10/16 00:46:38;;;;;;;2.05;0.98;;;;;;;7.02;100.00;102159.91;4911173;29;20058;-76
2023/10/16 00:49:06;;;;;;;5.78;0.88;;;;;;;7.03;100.00;102165.22;4905057;29;20044;-76
2023/10/16 00:51:36;;;;;;;3.47;1.00;;;;;;;7.05;100.00;102161.75;4867625;29;20051;-76
2023/10/16 00:54:19;;;;;;;5.10;1.00;;;;;;;7.07;100.00;102168.84;4903737;29;20051;-76
2023/10/16 00:56:50;;;;;;;3.72;0.95;;;;;;;7.09;100.00;102166.28;4909088;29;20066;-76
2023/10/16 00:59:17;;;;;;;4.47;0.80;;;;;;;7.12;100.00;102175.16;4913153;29;20063;-77
2023/10/16 01:01:46;;;;;;;8.63;1.20;;;;;;;7.15;100.00;102190.13;4902895;29;20048;-76
2023/10/16 01:04:17;;;;;;;4.75;1.75;;;;;;;7.17;100.00;102185.84;4899845;29;20055;-76
2023/10/16 01:06:45;;;;;;;6.07;1.38;;;;;;;7.19;100.00;102182.41;4878283;29;20100;-76
2023/10/16 01:09:22;;;;;;;3.88;1.35;;;;;;;7.23;100.00;102186.06;4929073;29;20437;-76
2023/10/16 01:11:52;;;;;;;2.80;1.27;;;;;;;7.25;100.00;102175.63;4927132;29;20059;-76
2023/10/16 01:14:20;;;;;;;4.68;1.88;;;;;;;7.25;100.00;102173.91;4951851;29;20043;-76
2023/10/16 01:16:49;;;;;;;7.45;2.17;;;;;;;7.27;100.00;102171.34;4922653;28;20046;-76
2023/10/16 01:19:19;;;;;;;3.55;1.40;;;;;;;7.29;100.00;102173.16;4943500;28;20389;-76
2023/10/16 01:21:48;;;;;;;4.22;1.77;;;;;;;7.29;100.00;102157.44;4924059;28;20055;-76
2023/10/16 01:24:19;;;;;;;4.50;1.90;;;;;;;7.30;100.00;102166.22;4893257;29;20058;-76
2023/10/16 01:26:48;;;;;;;8.57;1.80;;;;;;;7.30;100.00;102169.72;4919870;29;20059;-76
2023/10/16 01:29:15;;;;;;;6.88;1.40;;;;;;;7.31;100.00;102166.25;4925105;29;20493;-76
2023/10/16 01:31:51;;;;;;;5.57;1.60;;;;;;;7.31;100.00;102176.75;4920869;29;20078;-76
2023/10/16 01:34:22;;;;;;;3.97;1.80;;;;;;;7.31;100.00;102165.38;4934796;29;20043;-76
2023/10/16 01:36:51;;;;;;;5.75;1.77;;;;;;;7.32;100.00;102165.44;4923469;28;20051;-76
2023/10/16 01:42:11;;;;;;;7.95;2.08;;;;;;;7.32;100.00;102157.56;4952890;28;20039;-76
2023/10/16 01:44:45;;;;;;;8.82;1.85;;;;;;;7.32;100.00;102152.31;4930366;28;20125;-76
2023/10/16 01:47:16;;;;;;;4.55;1.60;;;;;;;7.30;100.00;102151.38;4940439;28;20047;-76
2023/10/16 01:49:45;;;;;;;5.85;1.45;;;;;;;7.27;100.00;102148.63;4931629;28;20047;-76
2023/10/16 01:52:12;;;;;;;4.38;1.38;;;;;;;7.23;100.00;102159.84;4927966;28;20511;-76
2023/10/16 01:54:46;;;;;;;2.92;1.30;;;;;;;7.20;100.00;102152.75;4872876;29;20063;-76
2023/10/16 01:57:15;;;;;;;4.75;1.70;;;;;;;7.16;100.00;102149.94;4920585;28;20047;-76
2023/10/16 01:59:44;;;;;;;5.70;1.80;;;;;;;7.13;100.00;102140.25;4917721;28;20055;-76
2023/10/16 02:02:13;;;;;;;5.80;1.40;;;;;;;7.08;100.00;102148.78;4906071;29;20054;-76
2023/10/16 02:04:42;;;;;;;3.97;1.48;;;;;;;7.06;100.00;102142.59;4951608;28;20496;-76
2023/10/16 02:07:11;;;;;;;5.18;1.45;;;;;;;7.05;100.00;102143.41;4925744;29;20422;-76
2023/10/16 02:09:40;;;;;;;5.18;1.15;;;;;;;7.04;100.00;102147.75;4912831;28;20417;-76
2023/10/16 02:12:16;;;;;;;3.45;1.38;;;;;;;7.05;100.00;102161.75;4934023;29;20050;-76
2023/10/16 02:14:44;;;;;;;7.13;1.63;;;;;;;7.05;100.00;102157.44;4932098;29;20047;-76
2023/10/16 02:17:21;;;;;;;4.32;1.30;;;;;;;7.07;100.00;102149.59;4903778;29;20058;-76
2023/10/16 02:19:50;;;;;;;4.97;1.70;;;;;;;7.06;100.00;102148.72;4907311;29;20039;-76
2023/10/16 02:22:18;;;;;;;3.00;1.60;;;;;;;7.03;100.00;102157.34;4923869;29;20043;-76
2023/10/16 02:24:49;;;;;;;5.75;1.80;;;;;;;7.01;100.00;102156.41;4906688;29;20055;-76
2023/10/16 02:27:18;;;;;;;2.35;1.50;;;;;;;7.02;100.00;102157.28;4888630;29;20050;-76
2023/10/16 02:29:49;;;;;;;7.72;2.60;;;;;;;7.02;100.00;102157.28;4914248;29;20635;-76
2023/10/16 02:32:16;;;;;;;6.82;1.70;;;;;;;7.00;100.00;102158.97;4932220;29;20052;-76
2023/10/16 02:34:43;;;;;;;4.20;1.35;;;;;;;6.97;100.00;102162.34;4887221;29;20055;-76
2023/10/16 02:37:14;;;;;;;5.82;1.42;;;;;;;6.95;100.00;102153.53;4886731;29;20051;-75
2023/10/16 02:39:50;;;;;;;3.58;1.17;;;;;;;6.92;100.00;102148.19;4892751;29;20055;-76
2023/10/16 02:42:18;;;;;;;4.70;1.58;;;;;;;6.89;100.00;102155.03;4873468;29;20055;-76
2023/10/16 02:44:45;;;;;;;4.20;1.30;;;;;;;6.87;100.00;102160.22;4930157;29;20047;-76
2023/10/16 02:47:13;;;;;;;2.05;1.40;;;;;;;6.85;100.00;102153.13;4950433;29;20054;-76
2023/10/16 02:49:47;;;;;;;3.72;1.08;;;;;;;6.85;100.00;102153.13;4921692;28;20140;-76
2023/10/16 02:52:16;;;;;;;4.95;1.30;;;;;;;6.84;100.00;102149.59;4933580;29;20051;-76
2023/10/16 02:54:46;;;;;;;3.58;1.58;;;;;;;6.83;100.00;102147.81;4937509;28;20050;-76
2023/10/16 02:57:14;;;;;;;5.75;1.40;;;;;;;6.80;100.00;102145.94;4917670;29;20055;-76
2023/10/16 02:59:45;;;;;;;5.97;1.30;;;;;;;6.79;100.00;102146.81;4867056;29;20052;-76
2023/10/16 03:02:22;;;;;;;3.72;1.50;;;;;;;6.77;100.00;102150.22;4949083;29;20054;-76
2023/10/16 03:05:01;;;;;;;3.45;2.35;;;;;;;6.73;100.00;102148.28;4900279;29;20794;-76
2023/10/16 03:07:29;;;;;;;7.15;1.95;;;;;;;6.71;100.00;102144.69;4919173;29;20050;-76
2023/10/16 03:09:56;;;;;;;2.55;1.80;;;;;;;6.69;100.00;102142.06;4909003;29;20047;-76
2023/10/16 03:12:24;;;;;;;3.40;1.67;;;;;;;6.69;100.00;102151.59;4932009;29;20051;-76
2023/10/16 03:14:57;;;;;;;3.67;1.50;;;;;;;6.70;100.00;102180.50;4897998;28;20061;-76
2023/10/16 03:19:58;;;;;;;4.53;1.92;;;;;;;6.78;100.00;102168.59;4930381;29;20059;-76
2023/10/16 03:22:25;;;;;;;4.68;1.85;;;;;;;6.82;100.00;102172.22;4912670;29;20051;-76
2023/10/16 03:24:55;;;;;;;6.22;1.88;;;;;;;6.83;100.00;102163.53;4939414;28;20054;-76
2023/10/16 03:27:29;;;;;;;6.93;1.90;;;;;;;6.84;100.00;102162.69;4931386;29;20023;-76
2023/10/16 03:29:58;;;;;;;6.07;1.58;;;;;;;6.85;100.00;102163.59;4885493;29;20740;-75
2023/10/16 03:32:33;;;;;;;;;;;;;;;6.85;100.00;102156.63;4932143;29;20046;-76
2023/10/16 03:35:05;;;;;;;2.88;1.20;;;;;;;6.82;100.00;102160.03;4914825;29;19933;-76
2023/10/16 03:37:35;;;;;;;5.65;1.50;;;;;;;6.81;100.00;102149.50;4920433;29;20051;-75
2023/10/16 03:40:11;;;;;;;3.03;1.63;;;;;;;6.79;100.00;102156.41;4922812;29;20051;-76
2023/10/16 03:42:40;;;;;;;4.38;1.70;;;;;;;6.76;100.00;102167.63;4914809;29;20058;-76
2023/10/16 03:45:08;;;;;;;6.78;2.55;;;;;;;6.73;100.00;102153.50;4872319;29;20047;-76
2023/10/16 03:47:35;;;;;;;9.23;1.80;;;;;;;6.69;100.00;102154.22;4898520;29;20062;-75
2023/10/16 03:50:03;;;;;;;4.05;2.15;;;;;;;6.67;100.00;102163.75;4931150;29;20051;-76
2023/10/16 03:52:31;;;;;;;5.60;1.88;;;;;;;6.65;100.00;102161.06;4943734;29;20058;-76
2023/10/16 03:55:20;;;;;;;3.10;1.42;;;;;;;6.62;100.00;102163.59;4917568;28;20058;-76
2023/10/16 03:57:47;;;;;;;5.78;1.60;;;;;;;6.61;100.00;102165.28;4931645;29;20058;-76
2023/10/16 04:00:15;;;;;;;10.02;1.58;;;;;;;6.59;100.00;102156.47;4869057;29;20047;-76
2023/10/16 04:02:44;;;;;;;2.60;1.80;;;;;;;6.56;100.00;102158.06;4889543;29;20059;-76
2023/10/16 04:05:30;;;;;;;3.38;1.23;;;;;;;6.54;100.00;102146.66;4942327;29;20035;-76
2023/10/16 04:07:57;;;;;;;6.55;1.40;;;;;;;6.55;100.00;102153.69;4933705;28;20058;-76
2023/10/16 04:10:28;;;;;;;5.28;1.42;;;;;;;6.56;100.00;102156.38;4891119;29;20062;-76
2023/10/16 04:12:57;;;;;;;4.85;1.77;;;;;;;6.59;100.00;102156.47;4928243;29;20039;-76
2023/10/16 04:21:40;;;;;;;4.80;1.60;;;;;;;6.60;100.00;102163.53;4933094;29;20039;-76
2023/10/16 04:34:24;;;;;;;4.35;1.60;;;;;;;6.69;100.00;102147.28;4915480;29;20059;-75
2023/10/16 04:37:24;;;;;;;10.85;1.80;;;;;;;6.70;100.00;102145.56;4929595;29;20515;-76
2023/10/16 04:50:37;;;;;;;5.38;1.67;;;;;;;6.79;100.00;102138.94;4933495;28;20063;-76
2023/10/16 04:53:09;;;;;;;3.58;1.83;;;;;;;6.83;100.00;102140.84;4919050;28;20448;-75
2023/10/16 05:06:14;;;;;;;4.65;2.40;;;;;;;7.02;100.00;102147.69;4937867;28;20047;-76
2023/10/16 05:11:36;;;;;;;5.00;1.80;;;;;;;7.10;100.00;102157.59;4918759;28;20050;-76
2023/10/16 06:14:34;;;;;;;7.45;1.50;;;;;;;7.60;100.00;102150.72;4894655;29;20050;-76
2023/10/16 06:17:15;;;;;;;4.53;1.40;;;;;;;7.61;100.00;102155.13;4932560;29;20051;-75
2023/10/16 06:19:43;;;;;;;3.90;1.17;;;;;;;7.61;100.00;102160.38;4872143;29;20047;-76
2023/10/16 06:22:12;;;;;;;3.13;1.27;;;;;;;7.62;100.00;102162.16;4945022;29;20062;-77
2023/10/16 06:24:44;;;;;;;2.08;1.15;;;;;;;7.64;100.00;102156.94;4950656;29;20493;-77
2023/10/16 06:27:19;;;;;;;3.20;1.45;;;;;;;7.68;100.00;102164.13;4890203;28;20043;-77
2023/10/16 06:29:51;;;;;;;5.07;1.30;;;;;;;7.72;100.00;102166.00;4926064;29;20063;-77
2023/10/16 06:32:25;;;;;;;4.65;1.20;;;;;;;7.74;100.00;102157.34;4928586;29;20051;-77
2023/10/16 06:35:01;;;;;;;6.40;1.55;;;;;;;7.79;100.00;102154.91;4886718;29;20039;-77
2023/10/16 06:37:31;;;;;;;3.22;1.33;;;;;;;7.83;100.00;102158.53;4915737;29;20054;-77
2023/10/16 06:40:01;;;;;;;5.93;1.75;;;;;;;7.85;100.00;102156.84;4932322;29;20429;-77
2023/10/16 06:42:29;;;;;;;2.75;1.45;;;;;;;7.87;100.00;102163.94;4931410;29;20054;-77
2023/10/16 06:45:07;;;;;;;;;;;;;;;7.90;100.00;102163.13;4887792;29;20035;-75
2023/10/16 06:47:35;;;;;;;5.22;1.42;;;;;;;7.93;100.00;102168.50;4936830;29;19926;-80
2023/10/16 06:50:53;;;;;;;4.65;1.38;;;;;;;7.94;100.00;102165.03;4930172;28;20050;-77
2023/10/16 06:53:01;;;;;;;4.70;1.70;;;;;;;7.97;100.00;102160.78;4903698;29;20055;-77
2023/10/16 06:55:29;;;;;;;8.20;1.50;;;;;;;7.99;100.00;102169.59;4947654;29;20416;-77
2023/10/16 06:57:56;;;;;;;3.72;1.90;;;;;;;8.03;100.00;102165.34;4915198;29;20055;-77
2023/10/16 07:00:27;;;;;;;5.85;1.33;;;;;;;8.06;100.00;102173.34;4901957;29;20043;-78
2023/10/16 07:02:56;;;;;;;5.85;1.75;;;;;;;8.09;100.00;102175.16;4904647;29;20058;-77
2023/10/16 07:05:42;;;;;;;5.35;1.70;;;;;;;8.11;100.00;102174.41;4930843;29;20047;-77
2023/10/16 07:08:17;;;;;;;8.55;1.75;;;;;;;8.12;100.00;102176.16;4889057;29;20066;-77
2023/10/16 07:10:55;;;;;;;7.13;1.80;;;;;;;8.14;100.00;102184.09;4897642;29;20055;-77
2023/10/16 07:13:27;;;;;;;1.98;1.05;;;;;;;8.17;100.00;102184.22;4911431;29;20044;-77
2023/10/16 07:16:01;;;;;;;6.75;1.40;;;;;;;8.18;100.00;102189.53;4883520;29;20433;-77
2023/10/16 07:18:33;;;;;;;4.75;1.40;;;;;;;8.19;100.00;102188.66;4912694;29;20050;-78
2023/10/16 07:23:37;;;;;;;8.23;1.63;;;;;;;8.24;100.00;102190.56;4885351;29;20131;-78
2023/10/16 07:26:07;;;;;;;2.97;1.38;;;;;;;8.27;100.00;102188.03;4897994;29;20043;-77
2023/10/16 07:28:36;;;;;;;6.20;1.48;;;;;;;8.28;100.00;102190.72;4927654;29;20047;-77
2023/10/16 07:31:05;;;;;;;3.17;1.58;;;;;;;8.32;100.00;102194.34;4916610;29;20414;-77
2023/10/16 07:33:33;;;;;;;5.38;1.40;;;;;;;8.34;100.00;102193.56;4896082;29;20060;-77
2023/10/16 07:36:00;;;;;;;4.72;1.30;;;;;;;8.37;100.00;102193.66;4909958;29;20059;-77
2023/10/16 07:38:28;;;;;;;7.63;1.48;;;;;;;8.39;100.00;102193.69;4870233;29;20862;-77
2023/10/16 07:41:00;;;;;;;4.40;1.42;;;;;;;8.45;100.00;102191.34;4933371;29;20059;-77
2023/10/16 07:43:29;;;;;;;3.45;1.10;;;;;;;8.50;100.00;102194.97;4910277;29;20060;-77
2023/10/16 07:48:44;;;;;;;4.72;1.40;;;;;;;8.69;100.00;102195.59;4916883;29;20508;-77
2023/10/16 07:51:12;;;;;;;2.95;1.30;;;;;;;8.77;100.00;102195.00;4909682;29;20058;-77
2023/10/16 07:53:39;;;;;;;7.15;1.33;;;;;;;8.88;100.00;102204.97;4896273;29;20055;-77
2023/10/16 07:56:19;;;;;;;6.18;1.40;;;;;;;8.95;100.00;102218.34;4895236;29;20062;-77
2023/10/16 07:58:51;;;;;;;9.35;1.80;;;;;;;9.03;100.00;102221.22;4898954;29;20050;-77
2023/10/16 08:01:32;;;;;;;6.95;1.33;;;;;;;9.02;100.00;102221.16;4905184;29;20055;-77
2023/10/16 08:04:00;;;;;;;4.47;1.40;;;;;;;8.99;100.00;102221.97;4903194;29;20050;-77
2023/10/16 08:06:28;;;;;;;4.20;1.00;;;;;;;9.01;100.00;102232.53;4921434;29;20070;-78
2023/10/16 08:11:45;;;;;;;6.40;1.48;;;;;;;9.05;100.00;102224.78;4932144;29;20063;-77
2023/10/16 08:14:15;;;;;;;2.35;0.82;;;;;;;9.09;100.00;102218.81;4916965;29;20051;-77
2023/10/16 08:16:42;;;;;;;4.47;1.02;;;;;;;9.14;100.00;102224.19;4948963;29;20055;-77
2023/10/16 08:19:16;;;;;;;2.22;0.85;;;;;;;9.18;100.00;102220.81;4917699;29;20054;-77
2023/10/16 08:21:43;;;;;;;3.75;1.10;;;;;;;9.22;100.00;102222.69;4912576;29;20059;-78
2023/10/16 08:24:14;;;;;;;5.45;0.93;;;;;;;9.26;100.00;102226.31;4874483;28;20047;-78
2023/10/16 08:26:42;;;;;;;7.32;1.13;;;;;;;9.30;100.00;102223.81;4913870;29;20043;-77
2023/10/16 08:34:35;;;;;;;3.50;0.93;;;;;;;9.44;100.00;102229.50;4946283;28;20054;-78
2023/10/16 08:37:08;;;;;;;2.20;0.52;;;;;;;9.51;100.00;102222.69;4930311;29;20055;-77
2023/10/16 08:39:36;;;;;;;1.65;0.98;;;;;;;9.55;100.00;102217.56;4916598;29;20059;-77
2023/10/16 08:42:19;;;;;;;3.85;0.90;;;;;;;9.62;100.00;102229.16;4886044;29;20054;-77
2023/10/16 08:45:14;;;;;;;5.60;0.80;;;;;;;9.67;100.00;102232.81;4932885;29;20070;-78
2023/10/16 08:47:46;;;;;;;5.80;1.00;;;;;;;9.75;100.00;102228.66;4921465;29;20524;-77
2023/10/16 08:50:17;;;;;;;3.25;1.10;;;;;;;9.79;100.00;102231.38;4947209;29;20047;-77
2023/10/16 08:52:50;;;;;;;3.40;1.10;;;;;;;9.81;100.00;102237.56;4933573;29;20059;-78
2023/10/16 08:55:18;;;;;;;1.83;1.38;;;;;;;9.83;100.00;102228.88;4908421;28;20047;-77
2023/10/16 08:57:48;;;;;;;3.75;1.10;;;;;;;9.87;100.00;102232.50;4932304;29;20568;-78
2023/10/16 09:00:22;;;;;;;3.53;0.90;;;;;;;9.90;100.00;102238.72;4897712;29;20059;-78
2023/10/16 09:02:51;;;;;;;1.73;1.00;;;;;;;9.99;100.00;102230.19;4932723;29;20055;-77
2023/10/16 09:05:20;;;;;;;5.20;0.98;;;;;;;10.09;100.00;102237.50;4901190;29;20059;-77
2023/10/16 09:07:48;;;;;;;3.15;0.88;;;;;;;10.14;100.00;102230.59;4915076;29;20046;-78
2023/10/16 09:10:20;;;;;;;6.57;1.20;;;;;;;10.18;100.00;102241.25;4896404;29;21148;-78
2023/10/16 09:12:56;;;;;;;3.53;0.75;;;;;;;10.19;100.00;102246.56;4872837;29;20047;-78
2023/10/16 09:15:24;;;;;;;2.92;1.10;;;;;;;10.22;100.00;102246.63;4927875;29;20520;-78
2023/10/16 09:17:52;;;;;;;3.97;1.63;;;;;;;10.26;100.00;102258.13;4948715;29;20496;-78
2023/10/16 09:20:22;;;;;;;1.45;0.70;;;;;;;10.29;100.00;102255.59;4918779;29;20058;-77
2023/10/16 09:22:50;;;;;;;3.38;1.27;;;;;;;10.31;100.00;102249.53;4934848;29;20058;-78
2023/10/16 09:25:22;;;;;;;2.83;0.73;;;;;;;10.38;100.00;102249.69;4915521;29;20051;-78
2023/10/16 09:28:05;;;;;;;4.30;1.05;;;;;;;10.44;100.00;102245.47;4862516;29;20051;-77
2023/10/16 09:30:33;;;;;;;4.78;0.82;;;;;;;10.50;100.00;102245.63;4933575;29;20241;-78
2023/10/16 09:33:03;;;;;;;4.50;1.00;;;;;;;10.56;100.00;102246.66;4873239;28;20047;-77
2023/10/16 09:35:32;;;;;;;3.67;1.52;;;;;;;10.61;100.00;102245.91;4921371;29;20051;-77
2023/10/16 09:38:17;;;;;;;13.63;2.03;;;;;;;10.66;100.00;102236.41;4935165;29;20055;-77
2023/10/16 09:41:31;;;;;;;7.25;1.17;;;;;;;10.72;100.00;102239.19;4935436;29;20510;-77
2023/10/16 09:43:56;;;;;;;3.25;1.00;;;;;;;10.84;100.00;102237.69;4886178;29;20416;-78
2023/10/16 09:49:10;;;;;;;4.55;1.35;;;;;;;11.10;100.00;102240.97;4949866;29;20035;-78
2023/10/16 09:51:39;;;;;;;3.85;0.85;;;;;;;11.26;100.00;102244.81;4906576;29;20429;-78
2023/10/16 09:54:23;;;;;;;1.95;0.93;;;;;;;11.45;100.00;102243.47;4917191;29;20062;-78
2023/10/16 09:56:58;;;;;;;3.05;1.10;;;;;;;11.57;100.00;102238.50;4937347;29;20424;-78
2023/10/16 09:59:32;;;;;;;3.47;0.73;;;;;;;11.64;100.00;102243.00;4890057;29;20976;-78
2023/10/16 10:02:08;;;;;;;8.90;1.35;;;;;;;11.67;100.00;102250.13;4930046;29;20070;-78
2023/10/16 10:04:43;;;;;;;3.75;1.02;;;;;;;11.68;100.00;102250.16;4930589;29;20052;-78
2023/10/16 10:07:22;;;;;;;4.88;1.23;;;;;;;11.71;100.00;102252.84;4889974;29;20055;-78
2023/10/16 10:09:59;;;;;;;6.47;1.27;;;;;;;11.75;100.00;102245.00;4948881;29;20066;-78
2023/10/16 10:12:47;;;;;;;5.95;1.38;;;;;;;11.84;100.00;102253.13;4931914;29;20472;-78
2023/10/16 10:15:26;;;;;;;3.85;1.13;;;;;;;11.89;100.00;102248.84;4906086;28;20051;-78
2023/10/16 10:17:55;;;;;;;6.45;1.30;;;;;;;11.92;100.00;102254.19;4924508;28;20053;-77
2023/10/16 10:20:26;;;;;;;4.97;0.90;;;;;;;11.92;100.00;102255.94;4905003;28;20149;-78
2023/10/16 10:23:05;;;;;;;4.20;1.10;;;;;;;11.83;100.00;102267.16;4893954;29;20062;-78
2023/10/16 10:25:41;;;;;;;2.20;0.90;;;;;;;11.66;100.00;102264.16;4929028;29;20303;-77
2023/10/16 10:28:22;;;;;;;3.85;0.80;;;;;;;11.49;100.00;102258.53;4922718;28;20051;-78
2023/10/16 10:30:51;;;;;;;2.10;0.63;;;;;;;11.38;100.00;102260.03;4885104;29;20051;-77
2023/10/16 10:33:38;;;;;;;4.00;0.70;;;;;;;11.25;100.00;102265.06;4914219;29;20058;-78
2023/10/16 10:36:34;;;;;;;5.03;0.60;;;;;;;11.16;100.00;102266.59;4924674;28;20047;-77
2023/10/16 10:39:21;;;;;;;3.25;0.70;;;;;;;11.16;100.00;102262.19;4916931;29;20047;-77
2023/10/16 10:41:54;;;;;;;2.70;0.70;;;;;;;11.21;100.00;102260.56;4909716;29;20063;-77
2023/10/16 10:44:37;;;;;;;2.17;0.77;;;;;;;11.34;100.00;102263.47;4911684;29;20055;-77
2023/10/16 10:47:40;;;;;;;0.90;0.60;;;;;;;11.48;100.00;102260.28;4872033;29;20051;-78
2023/10/16 10:50:14;;;;;;;2.28;0.80;;;;;;;11.53;100.00;102257.75;4839433;29;20064;-78
2023/10/16 10:52:43;;;;;;;1.95;0.57;;;;;;;11.54;100.00;102254.25;4896770;29;20055;-78
2023/10/16 10:55:25;;;;;;;4.40;0.70;;;;;;;11.61;100.00;102253.53;4946669;28;20515;-78
2023/10/16 10:58:11;;;;;;;4.20;0.88;;;;;;;11.68;100.00;102246.59;4925459;29;20067;-78
2023/10/16 11:00:45;;;;;;;2.95;0.77;;;;;;;11.70;100.00;102244.88;4931089;29;20055;-78
2023/10/16 11:03:44;;;;;;;1.98;0.73;;;;;;;11.69;100.00;102241.38;4863813;29;20059;-78
2023/10/16 11:06:01;;;;;;;2.20;0.70;;;;;;;11.73;100.00;102237.03;4913178;29;20051;-78
2023/10/16 11:08:34;;;;;;;4.28;0.80;;;;;;;11.79;100.00;102241.56;4915706;29;20051;-78
2023/10/16 11:11:03;;;;;;;1.85;0.63;;;;;;;11.84;100.00;102238.16;4921660;29;20055;-78
2023/10/16 11:13:31;;;;;;;1.80;0.70;;;;;;;11.94;100.00;102238.38;4925565;28;20039;-78
2023/10/16 11:16:00;;;;;;;3.03;0.60;;;;;;;12.01;100.00;102241.16;4918819;29;20067;-78
2023/10/16 11:18:30;;;;;;;2.45;0.95;;;;;;;12.04;100.00;102235.94;4870629;29;20412;-78
2023/10/16 11:21:04;;;;;;;3.80;1.00;;;;;;;12.07;100.00;102233.34;4910990;28;20054;-78
2023/10/16 11:23:32;;;;;;;5.38;1.30;;;;;;;12.17;100.00;102234.41;4905523;28;20062;-78
2023/10/16 11:26:00;;;;;;;3.15;0.82;;;;;;;12.22;100.00;102239.78;4942102;28;20489;-78
2023/10/16 11:28:36;;;;;;;2.88;1.02;;;;;;;12.30;100.00;102235.53;4931203;29;20721;-78
2023/10/16 11:31:09;;;;;;;2.10;0.90;;;;;;;12.41;100.00;102235.72;4914076;29;20058;-77
2023/10/16 11:34:00;;;;;;;9.18;1.45;;;;;;;12.52;100.00;102236.81;4883777;28;20047;-78
2023/10/16 11:36:29;;;;;;;3.25;1.40;;;;;;;12.56;100.00;102224.53;4929937;29;20632;-78
2023/10/16 11:39:07;;;;;;;4.47;1.50;;;;;;;12.58;100.00;102230.75;4935335;28;20039;-78
2023/10/16 11:41:36;;;;;;;4.05;1.05;;;;;;;12.62;100.00;102224.63;4930874;28;20058;-77
2023/10/16 11:44:14;;;;;;;2.83;1.10;;;;;;;12.66;100.00;102218.53;4938482;29;20413;-77
2023/10/16 11:46:44;;;;;;;2.47;1.10;;;;;;;12.72;100.00;102223.03;4930131;29;20051;-77
2023/10/16 11:51:49;;;;;;;6.65;1.23;;;;;;;12.62;100.00;102225.50;4937195;29;20050;-78
2023/10/16 11:54:21;;;;;;;5.03;0.82;;;;;;;12.53;100.00;102217.41;4904365;28;20055;-78
2023/10/16 11:56:54;;;;;;;5.43;1.38;;;;;;;12.48;100.00;102213.84;4909798;28;20047;-78
2023/10/16 11:59:27;;;;;;;3.45;1.30;;;;;;;12.37;100.00;102218.94;4927761;29;20047;-78
2023/10/16 12:02:11;;;;;;;5.07;0.80;;;;;;;12.27;100.00;102225.81;4949689;29;20047;-78
2023/10/16 12:04:42;;;;;;;0.77;0.70;;;;;;;12.14;100.00;102221.16;4871716;29;20520;-78
2023/10/16 12:07:13;;;;;;;7.65;1.00;;;;;;;12.05;100.00;102226.25;4891266;29;20067;-78
2023/10/16 12:09:47;;;;;;;1.02;0.80;;;;;;;11.96;100.00;102232.25;4901561;29;20066;-78
2023/10/16 12:12:22;;;;;;;1.92;0.80;;;;;;;11.92;100.00;102227.78;4912272;29;20047;-77
2023/10/16 12:14:50;;;;;;;7.93;1.10;;;;;;;11.90;100.00;102225.09;4912681;29;20058;-78
2023/10/16 12:17:24;;;;;;;4.75;1.10;;;;;;;11.89;100.00;102225.97;4911254;29;20055;-78
2023/10/16 12:19:52;;;;;;;1.33;0.75;;;;;;;11.90;100.00;102222.44;4899666;29;20051;-78
2023/10/16 12:22:20;;;;;;;4.57;0.82;;;;;;;11.95;100.00;102222.56;4906998;29;20051;-77
2023/10/16 12:24:49;;;;;;;3.95;1.30;;;;;;;11.99;100.00;102221.75;4888041;29;20055;-78
2023/10/16 12:27:17;;;;;;;9.18;1.05;;;;;;;12.02;100.00;102221.81;4934357;29;20933;-78
2023/10/16 12:29:44;;;;;;;3.22;1.30;;;;;;;12.09;100.00;102233.38;4938419;29;20458;-78
2023/10/16 12:32:12;;;;;;;4.10;1.27;;;;;;;12.12;100.00;102221.97;4906932;28;20055;-77
2023/10/16 12:34:41;;;;;;;3.53;1.10;;;;;;;12.13;100.00;102222.00;4931464;29;20047;-77
2023/10/16 12:37:09;;;;;;;2.72;0.77;;;;;;;12.16;100.00;102224.72;4873706;28;20054;-77
2023/10/16 12:39:45;;;;;;;2.05;1.35;;;;;;;12.19;100.00;102219.50;4899999;28;20050;-77
2023/10/16 12:42:15;;;;;;;3.72;1.30;;;;;;;12.18;100.00;102217.72;4912151;28;20047;-77
2023/10/16 12:44:43;;;;;;;4.50;1.65;;;;;;;12.18;100.00;102216.81;4930784;29;20409;-77
2023/10/16 12:47:12;;;;;;;3.42;1.15;;;;;;;12.15;100.00;102222.03;4940601;29;20058;-78
2023/10/16 12:49:58;;;;;;;2.15;0.93;;;;;;;12.11;100.00;102214.91;4932819;29;20035;-76
2023/10/16 12:52:29;;;;;;;3.38;1.20;;;;;;;12.09;100.00;102215.78;4883626;28;20066;-77
2023/10/16 12:55:00;;;;;;;3.10;1.30;;;;;;;12.07;100.00;102217.50;4892865;29;20400;-77
2023/10/16 12:57:28;;;;;;;5.45;2.78;;;;;;;12.05;100.00;102221.88;4920879;28;20055;-77
2023/10/16 12:59:56;;;;;;;4.03;1.83;;;;;;;12.03;100.00;102218.31;4908851;29;20508;-77
2023/10/16 13:02:26;;;;;;;8.07;1.48;;;;;;;12.04;100.00;102214.81;4932893;29;20047;-77
2023/10/16 13:04:55;;;;;;;;;;;;;;;12.07;100.00;102214.84;4920451;29;20058;-78
2023/10/16 13:07:25;;;;;;;1.85;0.90;;;;;;;12.09;100.00;102215.78;4878506;29;21526;-78
2023/10/16 13:10:19;;;;;;;4.35;0.93;;;;;;;12.08;100.00;102211.38;4920444;28;20492;-77
2023/10/16 13:12:47;;;;;;;4.82;1.20;;;;;;;12.10;100.00;102216.69;4951204;29;20050;-77
2023/10/16 13:15:24;;;;;;;4.45;1.25;;;;;;;12.13;100.00;102218.47;4903257;29;20051;-77
2023/10/16 13:17:52;;;;;;;2.05;1.02;;;;;;;12.14;100.00;102218.50;4936297;29;20043;-77
2023/10/16 13:20:20;;;;;;;6.40;1.42;;;;;;;12.14;100.00;102217.63;4932991;29;20069;-78
2023/10/16 13:22:49;;;;;;;7.05;1.27;;;;;;;12.14;100.00;102209.72;4930609;28;20059;-78
2023/10/16 13:25:17;;;;;;;5.78;0.90;;;;;;;12.12;100.00;102214.97;4892701;29;20051;-77
2023/10/16 13:27:45;;;;;;;3.20;1.50;;;;;;;12.12;100.00;102211.41;4936338;28;20055;-77
2023/10/16 13:30:16;;;;;;;4.60;1.05;;;;;;;12.10;100.00;102221.97;4925840;28;20055;-77
2023/10/16 13:32:48;;;;;;;7.22;1.20;;;;;;;12.06;100.00;102213.09;4920223;29;20039;-77
2023/10/16 13:35:17;;;;;;;6.32;1.30;;;;;;;12.02;100.00;102223.56;4939793;29;20565;-77
2023/10/16 13:37:46;;;;;;;7.10;0.90;;;;;;;11.99;100.00;102212.94;4932173;29;20074;-78
2023/10/16 13:40:21;;;;;;;1.92;0.90;;;;;;;11.97;100.00;102231.41;4867258;28;20519;-77
2023/10/16 13:42:50;;;;;;;5.82;1.02;;;;;;;11.91;100.00;102228.66;4929934;29;20062;-77
2023/10/16 13:45:19;;;;;;;2.80;1.13;;;;;;;11.85;100.00;102232.03;4918989;28;20060;-77
2023/10/16 13:47:46;;;;;;;3.45;1.17;;;;;;;11.73;100.00;102237.03;4924833;29;20059;-77
2023/10/16 13:50:16;;;;;;;3.22;0.90;;;;;;;11.54;100.00;102233.13;4913387;29;20035;-77